sensor_id;sensor_type;location;lat;lon;timestamp;temperature;humidity
24144;DHT22;12307;50.828;6.080;2023-05-31T00:00:01;22.00;54.60
24144;DHT22;12307;50.828;6.080;2023-05-31T00:02:29;22.00;54.60
24144;DHT22;12307;50.828;6.080;2023-05-31T00:04:54;22.00;54.60
24144;DHT22;12307;50.828;6.080;2023-05-31T00:07:22;21.90;54.60
24144;DHT22;12307;50.828;6.080;2023-05-31T00:09:47;21.90;54.60
24144;DHT22;12307;50.828;6.080;2023-05-31T00:12:13;21.90;54.60
24144;DHT22;12307;50.828;6.080;2023-05-31T00:14:39;22.00;54.70
24144;DHT22;12307;50.828;6.080;2023-05-31T00:17:05;22.00;54.70
24144;DHT22;12307;50.828;6.080;2023-05-31T00:19:31;22.00;54.70
24144;DHT22;12307;50.828;6.080;2023-05-31T00:21:56;21.90;54.70
24144;DHT22;12307;50.828;6.080;2023-05-31T00:24:23;21.90;54.70
24144;DHT22;12307;50.828;6.080;2023-05-31T00:26:49;21.90;54.70
24144;DHT22;12307;50.828;6.080;2023-05-31T00:29:15;21.90;54.70
24144;DHT22;12307;50.828;6.080;2023-05-31T00:31:41;21.90;54.80
24144;DHT22;12307;50.828;6.080;2023-05-31T00:34:06;21.90;54.80
24144;DHT22;12307;50.828;6.080;2023-05-31T00:36:32;21.90;54.80
24144;DHT22;12307;50.828;6.080;2023-05-31T00:38:58;21.90;54.80
24144;DHT22;12307;50.828;6.080;2023-05-31T00:41:25;21.90;54.90
24144;DHT22;12307;50.828;6.080;2023-05-31T00:43:51;21.90;54.90
24144;DHT22;12307;50.828;6.080;2023-05-31T00:46:25;21.90;54.90
24144;DHT22;12307;50.828;6.080;2023-05-31T00:48:51;21.90;54.90
24144;DHT22;12307;50.828;6.080;2023-05-31T00:51:19;21.90;55.00
24144;DHT22;12307;50.828;6.080;2023-05-31T00:53:45;21.90;55.00
24144;DHT22;12307;50.828;6.080;2023-05-31T00:56:12;21.80;54.90
24144;DHT22;12307;50.828;6.080;2023-05-31T00:58:40;21.90;55.00
24144;DHT22;12307;50.828;6.080;2023-05-31T01:01:07;21.90;55.00
24144;DHT22;12307;50.828;6.080;2023-05-31T01:03:33;21.80;54.90
24144;DHT22;12307;50.828;6.080;2023-05-31T01:05:59;21.80;55.00
24144;DHT22;12307;50.828;6.080;2023-05-31T01:08:26;21.80;55.00
24144;DHT22;12307;50.828;6.080;2023-05-31T01:10:52;21.80;55.00
24144;DHT22;12307;50.828;6.080;2023-05-31T01:13:25;21.80;55.10
24144;DHT22;12307;50.828;6.080;2023-05-31T01:16:01;21.80;55.10
24144;DHT22;12307;50.828;6.080;2023-05-31T01:18:33;21.80;55.10
24144;DHT22;12307;50.828;6.080;2023-05-31T01:21:01;21.80;55.10
24144;DHT22;12307;50.828;6.080;2023-05-31T01:23:42;21.80;55.10
24144;DHT22;12307;50.828;6.080;2023-05-31T01:26:35;21.80;55.10
24144;DHT22;12307;50.828;6.080;2023-05-31T01:29:05;21.80;55.20
24144;DHT22;12307;50.828;6.080;2023-05-31T01:31:34;21.80;55.20
24144;DHT22;12307;50.828;6.080;2023-05-31T01:34:01;21.80;55.20
24144;DHT22;12307;50.828;6.080;2023-05-31T01:36:28;21.80;55.20
24144;DHT22;12307;50.828;6.080;2023-05-31T01:38:53;21.80;55.20
24144;DHT22;12307;50.828;6.080;2023-05-31T01:41:21;21.80;55.20
24144;DHT22;12307;50.828;6.080;2023-05-31T01:43:49;21.70;55.20
24144;DHT22;12307;50.828;6.080;2023-05-31T01:46:17;21.70;55.20
24144;DHT22;12307;50.828;6.080;2023-05-31T01:48:44;21.80;55.30
24144;DHT22;12307;50.828;6.080;2023-05-31T01:51:11;21.70;55.30
24144;DHT22;12307;50.828;6.080;2023-05-31T01:53:39;21.70;55.30
24144;DHT22;12307;50.828;6.080;2023-05-31T01:56:05;21.70;55.30
24144;DHT22;12307;50.828;6.080;2023-05-31T01:58:35;21.70;55.40
24144;DHT22;12307;50.828;6.080;2023-05-31T02:01:01;21.70;55.30
24144;DHT22;12307;50.828;6.080;2023-05-31T02:03:28;21.70;55.40
24144;DHT22;12307;50.828;6.080;2023-05-31T02:05:54;21.70;55.40
24144;DHT22;12307;50.828;6.080;2023-05-31T02:08:21;21.70;55.40
24144;DHT22;12307;50.828;6.080;2023-05-31T02:10:46;21.70;55.50
24144;DHT22;12307;50.828;6.080;2023-05-31T02:13:12;21.70;55.50
24144;DHT22;12307;50.828;6.080;2023-05-31T02:15:39;21.70;55.50
24144;DHT22;12307;50.828;6.080;2023-05-31T02:18:06;21.60;55.50
24144;DHT22;12307;50.828;6.080;2023-05-31T02:20:33;21.70;55.50
24144;DHT22;12307;50.828;6.080;2023-05-31T02:22:59;21.70;55.50
24144;DHT22;12307;50.828;6.080;2023-05-31T02:25:25;21.70;55.50
24144;DHT22;12307;50.828;6.080;2023-05-31T02:27:51;21.70;55.50
24144;DHT22;12307;50.828;6.080;2023-05-31T02:30:16;21.70;55.60
24144;DHT22;12307;50.828;6.080;2023-05-31T02:32:44;21.60;55.50
24144;DHT22;12307;50.828;6.080;2023-05-31T02:35:10;21.70;55.60
24144;DHT22;12307;50.828;6.080;2023-05-31T02:37:38;21.60;55.60
24144;DHT22;12307;50.828;6.080;2023-05-31T02:40:05;21.60;55.60
24144;DHT22;12307;50.828;6.080;2023-05-31T02:42:35;21.60;55.60
24144;DHT22;12307;50.828;6.080;2023-05-31T02:45:00;21.60;55.60
24144;DHT22;12307;50.828;6.080;2023-05-31T02:47:26;21.60;55.70
24144;DHT22;12307;50.828;6.080;2023-05-31T02:49:53;21.60;55.70
24144;DHT22;12307;50.828;6.080;2023-05-31T02:52:19;21.60;56.30
24144;DHT22;12307;50.828;6.080;2023-05-31T02:54:46;21.60;55.70
24144;DHT22;12307;50.828;6.080;2023-05-31T02:57:11;21.60;55.80
24144;DHT22;12307;50.828;6.080;2023-05-31T02:59:37;21.60;55.80
24144;DHT22;12307;50.828;6.080;2023-05-31T03:02:03;21.60;55.80
24144;DHT22;12307;50.828;6.080;2023-05-31T03:04:30;21.60;55.80
24144;DHT22;12307;50.828;6.080;2023-05-31T03:06:57;21.60;55.80
24144;DHT22;12307;50.828;6.080;2023-05-31T03:09:23;21.50;55.80
24144;DHT22;12307;50.828;6.080;2023-05-31T03:11:49;21.50;55.80
24144;DHT22;12307;50.828;6.080;2023-05-31T03:14:14;21.60;55.90
24144;DHT22;12307;50.828;6.080;2023-05-31T03:16:41;21.50;55.90
24144;DHT22;12307;50.828;6.080;2023-05-31T03:19:07;21.50;55.90
24144;DHT22;12307;50.828;6.080;2023-05-31T03:21:32;21.50;55.90
24144;DHT22;12307;50.828;6.080;2023-05-31T03:23:59;21.50;55.90
24144;DHT22;12307;50.828;6.080;2023-05-31T03:26:25;21.50;55.90
24144;DHT22;12307;50.828;6.080;2023-05-31T03:28:51;21.50;55.90
24144;DHT22;12307;50.828;6.080;2023-05-31T03:31:17;21.50;55.90
24144;DHT22;12307;50.828;6.080;2023-05-31T03:33:44;21.50;55.90
24144;DHT22;12307;50.828;6.080;2023-05-31T03:36:10;21.50;55.90
24144;DHT22;12307;50.828;6.080;2023-05-31T03:38:36;21.50;55.90
24144;DHT22;12307;50.828;6.080;2023-05-31T03:41:03;21.50;56.00
24144;DHT22;12307;50.828;6.080;2023-05-31T03:43:29;21.50;56.00
24144;DHT22;12307;50.828;6.080;2023-05-31T03:45:56;21.50;56.00
24144;DHT22;12307;50.828;6.080;2023-05-31T03:48:26;21.50;56.00
24144;DHT22;12307;50.828;6.080;2023-05-31T03:50:51;21.50;56.00
24144;DHT22;12307;50.828;6.080;2023-05-31T03:53:17;21.50;56.00
24144;DHT22;12307;50.828;6.080;2023-05-31T03:55:43;21.50;56.00
24144;DHT22;12307;50.828;6.080;2023-05-31T03:58:10;21.50;56.00
24144;DHT22;12307;50.828;6.080;2023-05-31T04:00:36;21.50;56.00
24144;DHT22;12307;50.828;6.080;2023-05-31T04:03:02;21.50;56.10
24144;DHT22;12307;50.828;6.080;2023-05-31T04:05:27;21.50;56.10
24144;DHT22;12307;50.828;6.080;2023-05-31T04:07:53;21.50;56.10
24144;DHT22;12307;50.828;6.080;2023-05-31T04:10:19;21.50;56.10
24144;DHT22;12307;50.828;6.080;2023-05-31T04:12:44;21.50;56.10
24144;DHT22;12307;50.828;6.080;2023-05-31T04:15:12;21.50;56.10
24144;DHT22;12307;50.828;6.080;2023-05-31T04:17:37;21.50;56.10
24144;DHT22;12307;50.828;6.080;2023-05-31T04:20:04;21.50;56.10
24144;DHT22;12307;50.828;6.080;2023-05-31T04:22:33;21.50;56.10
24144;DHT22;12307;50.828;6.080;2023-05-31T04:24:58;21.50;56.10
24144;DHT22;12307;50.828;6.080;2023-05-31T04:27:24;21.50;56.10
24144;DHT22;12307;50.828;6.080;2023-05-31T04:29:51;21.50;56.10
24144;DHT22;12307;50.828;6.080;2023-05-31T04:32:18;21.50;56.10
24144;DHT22;12307;50.828;6.080;2023-05-31T04:34:46;21.40;56.10
24144;DHT22;12307;50.828;6.080;2023-05-31T04:37:14;21.50;56.10
24144;DHT22;12307;50.828;6.080;2023-05-31T04:39:40;21.50;56.10
24144;DHT22;12307;50.828;6.080;2023-05-31T04:42:06;21.50;56.10
24144;DHT22;12307;50.828;6.080;2023-05-31T04:44:36;21.50;56.10
24144;DHT22;12307;50.828;6.080;2023-05-31T04:47:03;21.50;56.10
24144;DHT22;12307;50.828;6.080;2023-05-31T04:49:31;21.50;56.10
24144;DHT22;12307;50.828;6.080;2023-05-31T04:51:57;21.50;56.10
24144;DHT22;12307;50.828;6.080;2023-05-31T04:54:23;21.50;56.10
24144;DHT22;12307;50.828;6.080;2023-05-31T04:56:48;21.50;56.10
24144;DHT22;12307;50.828;6.080;2023-05-31T04:59:14;21.50;56.10
24144;DHT22;12307;50.828;6.080;2023-05-31T05:01:40;21.50;56.10
24144;DHT22;12307;50.828;6.080;2023-05-31T05:04:05;21.50;56.10
24144;DHT22;12307;50.828;6.080;2023-05-31T05:06:33;21.50;56.20
24144;DHT22;12307;50.828;6.080;2023-05-31T05:08:59;21.50;56.10
24144;DHT22;12307;50.828;6.080;2023-05-31T05:11:24;21.50;56.20
24144;DHT22;12307;50.828;6.080;2023-05-31T05:13:50;21.50;56.10
24144;DHT22;12307;50.828;6.080;2023-05-31T05:16:16;21.50;56.10
24144;DHT22;12307;50.828;6.080;2023-05-31T05:18:42;21.50;56.20
24144;DHT22;12307;50.828;6.080;2023-05-31T05:21:07;21.50;56.10
24144;DHT22;12307;50.828;6.080;2023-05-31T05:23:35;21.50;56.10
24144;DHT22;12307;50.828;6.080;2023-05-31T05:26:03;21.60;56.20
24144;DHT22;12307;50.828;6.080;2023-05-31T05:28:28;21.50;56.10
24144;DHT22;12307;50.828;6.080;2023-05-31T05:30:54;21.50;56.10
24144;DHT22;12307;50.828;6.080;2023-05-31T05:33:20;21.60;56.20
24144;DHT22;12307;50.828;6.080;2023-05-31T05:35:45;21.60;56.20
24144;DHT22;12307;50.828;6.080;2023-05-31T05:38:11;21.60;56.20
24144;DHT22;12307;50.828;6.080;2023-05-31T05:40:38;21.60;56.20
24144;DHT22;12307;50.828;6.080;2023-05-31T05:43:04;21.60;56.20
24144;DHT22;12307;50.828;6.080;2023-05-31T05:45:30;21.60;56.20
24144;DHT22;12307;50.828;6.080;2023-05-31T05:47:56;21.60;56.20
24144;DHT22;12307;50.828;6.080;2023-05-31T05:50:22;21.60;56.10
24144;DHT22;12307;50.828;6.080;2023-05-31T05:52:48;21.60;56.10
24144;DHT22;12307;50.828;6.080;2023-05-31T05:55:14;21.60;56.10
24144;DHT22;12307;50.828;6.080;2023-05-31T05:57:41;21.60;56.00
24144;DHT22;12307;50.828;6.080;2023-05-31T06:00:08;21.70;56.10
24144;DHT22;12307;50.828;6.080;2023-05-31T06:02:37;21.70;56.10
24144;DHT22;12307;50.828;6.080;2023-05-31T06:05:03;21.70;56.00
24144;DHT22;12307;50.828;6.080;2023-05-31T06:07:29;21.70;56.00
24144;DHT22;12307;50.828;6.080;2023-05-31T06:09:55;21.70;56.00
24144;DHT22;12307;50.828;6.080;2023-05-31T06:12:21;21.70;56.00
24144;DHT22;12307;50.828;6.080;2023-05-31T06:14:48;21.70;55.90
24144;DHT22;12307;50.828;6.080;2023-05-31T06:17:15;21.70;55.90
24144;DHT22;12307;50.828;6.080;2023-05-31T06:19:40;21.70;55.90
24144;DHT22;12307;50.828;6.080;2023-05-31T06:22:06;21.80;56.00
24144;DHT22;12307;50.828;6.080;2023-05-31T06:24:32;21.80;55.90
24144;DHT22;12307;50.828;6.080;2023-05-31T06:26:58;21.80;56.00
24144;DHT22;12307;50.828;6.080;2023-05-31T06:29:23;21.80;55.90
24144;DHT22;12307;50.828;6.080;2023-05-31T06:31:50;21.80;55.90
24144;DHT22;12307;50.828;6.080;2023-05-31T06:34:16;21.80;55.90
24144;DHT22;12307;50.828;6.080;2023-05-31T06:36:42;21.90;56.00
24144;DHT22;12307;50.828;6.080;2023-05-31T06:39:08;21.90;56.00
24144;DHT22;12307;50.828;6.080;2023-05-31T06:41:34;21.90;56.00
24144;DHT22;12307;50.828;6.080;2023-05-31T06:44:00;21.90;55.90
24144;DHT22;12307;50.828;6.080;2023-05-31T06:46:26;21.90;55.90
24144;DHT22;12307;50.828;6.080;2023-05-31T06:48:53;21.90;55.90
24144;DHT22;12307;50.828;6.080;2023-05-31T06:51:19;21.90;55.80
24144;DHT22;12307;50.828;6.080;2023-05-31T06:53:46;22.00;55.90
24144;DHT22;12307;50.828;6.080;2023-05-31T06:56:11;22.00;55.80
24144;DHT22;12307;50.828;6.080;2023-05-31T06:58:37;22.00;55.80
24144;DHT22;12307;50.828;6.080;2023-05-31T07:01:03;22.00;55.80
24144;DHT22;12307;50.828;6.080;2023-05-31T07:03:29;22.10;55.80
24144;DHT22;12307;50.828;6.080;2023-05-31T07:05:56;22.10;55.80
24144;DHT22;12307;50.828;6.080;2023-05-31T07:08:21;22.10;55.70
24144;DHT22;12307;50.828;6.080;2023-05-31T07:10:47;22.10;55.70
24144;DHT22;12307;50.828;6.080;2023-05-31T07:13:14;22.10;55.70
24144;DHT22;12307;50.828;6.080;2023-05-31T07:15:40;22.10;55.70
24144;DHT22;12307;50.828;6.080;2023-05-31T07:18:05;22.20;55.70
24144;DHT22;12307;50.828;6.080;2023-05-31T07:20:31;22.20;55.70
24144;DHT22;12307;50.828;6.080;2023-05-31T07:22:58;22.20;55.70
24144;DHT22;12307;50.828;6.080;2023-05-31T07:25:24;22.30;55.70
24144;DHT22;12307;50.828;6.080;2023-05-31T07:27:50;22.30;55.70
24144;DHT22;12307;50.828;6.080;2023-05-31T07:30:16;22.30;55.70
24144;DHT22;12307;50.828;6.080;2023-05-31T07:32:42;22.30;55.70
24144;DHT22;12307;50.828;6.080;2023-05-31T07:35:08;22.30;55.70
24144;DHT22;12307;50.828;6.080;2023-05-31T07:37:34;22.30;55.70
24144;DHT22;12307;50.828;6.080;2023-05-31T07:40:01;22.40;55.70
24144;DHT22;12307;50.828;6.080;2023-05-31T07:42:26;22.40;55.60
24144;DHT22;12307;50.828;6.080;2023-05-31T07:44:54;22.40;55.60
24144;DHT22;12307;50.828;6.080;2023-05-31T07:47:19;22.50;55.60
24144;DHT22;12307;50.828;6.080;2023-05-31T07:49:46;22.50;55.60
24144;DHT22;12307;50.828;6.080;2023-05-31T07:52:12;22.50;55.60
24144;DHT22;12307;50.828;6.080;2023-05-31T07:54:37;22.60;55.60
24144;DHT22;12307;50.828;6.080;2023-05-31T07:57:05;22.60;55.60
24144;DHT22;12307;50.828;6.080;2023-05-31T07:59:31;22.60;55.60
24144;DHT22;12307;50.828;6.080;2023-05-31T08:01:56;22.70;55.60
24144;DHT22;12307;50.828;6.080;2023-05-31T08:04:22;22.70;55.50
24144;DHT22;12307;50.828;6.080;2023-05-31T08:06:48;22.80;55.50
24144;DHT22;12307;50.828;6.080;2023-05-31T08:09:13;22.90;55.40
24144;DHT22;12307;50.828;6.080;2023-05-31T08:11:39;23.00;55.30
24144;DHT22;12307;50.828;6.080;2023-05-31T08:14:06;23.10;55.20
24144;DHT22;12307;50.828;6.080;2023-05-31T08:16:33;23.30;55.00
24144;DHT22;12307;50.828;6.080;2023-05-31T08:18:59;23.60;54.70
24144;DHT22;12307;50.828;6.080;2023-05-31T08:21:25;24.00;54.30
24144;DHT22;12307;50.828;6.080;2023-05-31T08:23:51;24.30;53.80
24144;DHT22;12307;50.828;6.080;2023-05-31T08:26:17;24.80;53.40
24144;DHT22;12307;50.828;6.080;2023-05-31T08:28:42;25.10;52.70
24144;DHT22;12307;50.828;6.080;2023-05-31T08:31:09;25.60;52.30
24144;DHT22;12307;50.828;6.080;2023-05-31T08:33:35;25.90;51.80
24144;DHT22;12307;50.828;6.080;2023-05-31T08:36:02;26.30;51.40
24144;DHT22;12307;50.828;6.080;2023-05-31T08:38:29;26.60;51.00
24144;DHT22;12307;50.828;6.080;2023-05-31T08:40:58;27.00;50.60
24144;DHT22;12307;50.828;6.080;2023-05-31T08:43:26;27.30;50.20
24144;DHT22;12307;50.828;6.080;2023-05-31T08:45:52;27.60;49.90
24144;DHT22;12307;50.828;6.080;2023-05-31T08:48:23;27.80;49.60
24144;DHT22;12307;50.828;6.080;2023-05-31T08:50:50;28.10;49.20
24144;DHT22;12307;50.828;6.080;2023-05-31T08:53:18;28.30;48.90
24144;DHT22;12307;50.828;6.080;2023-05-31T08:55:45;28.60;48.70
24144;DHT22;12307;50.828;6.080;2023-05-31T08:58:13;28.80;48.60
24144;DHT22;12307;50.828;6.080;2023-05-31T09:00:40;29.00;48.40
24144;DHT22;12307;50.828;6.080;2023-05-31T09:03:08;29.20;48.30
24144;DHT22;12307;50.828;6.080;2023-05-31T09:05:35;29.40;48.80
24144;DHT22;12307;50.828;6.080;2023-05-31T09:08:01;29.60;48.00
24144;DHT22;12307;50.828;6.080;2023-05-31T09:10:27;29.70;47.80
24144;DHT22;12307;50.828;6.080;2023-05-31T09:12:54;29.90;47.60
24144;DHT22;12307;50.828;6.080;2023-05-31T09:15:22;30.00;47.30
24144;DHT22;12307;50.828;6.080;2023-05-31T09:17:48;30.10;46.80
24144;DHT22;12307;50.828;6.080;2023-05-31T09:20:13;30.30;46.60
24144;DHT22;12307;50.828;6.080;2023-05-31T09:22:41;30.40;46.30
24144;DHT22;12307;50.828;6.080;2023-05-31T09:25:07;30.50;45.90
24144;DHT22;12307;50.828;6.080;2023-05-31T09:27:37;30.60;45.70
24144;DHT22;12307;50.828;6.080;2023-05-31T09:30:08;30.80;45.50
24144;DHT22;12307;50.828;6.080;2023-05-31T09:32:34;30.90;45.30
24144;DHT22;12307;50.828;6.080;2023-05-31T09:35:11;31.00;45.10
24144;DHT22;12307;50.828;6.080;2023-05-31T09:37:44;31.10;45.10
24144;DHT22;12307;50.828;6.080;2023-05-31T09:40:12;31.20;44.90
24144;DHT22;12307;50.828;6.080;2023-05-31T09:42:38;31.30;44.80
24144;DHT22;12307;50.828;6.080;2023-05-31T09:45:04;31.40;44.90
24144;DHT22;12307;50.828;6.080;2023-05-31T09:47:31;31.50;44.90
24144;DHT22;12307;50.828;6.080;2023-05-31T09:49:56;31.60;44.80
24144;DHT22;12307;50.828;6.080;2023-05-31T09:52:26;31.60;44.80
24144;DHT22;12307;50.828;6.080;2023-05-31T09:54:55;31.70;44.80
24144;DHT22;12307;50.828;6.080;2023-05-31T09:57:30;31.80;44.80
24144;DHT22;12307;50.828;6.080;2023-05-31T09:59:57;31.90;44.60
24144;DHT22;12307;50.828;6.080;2023-05-31T10:02:24;31.90;44.60
24144;DHT22;12307;50.828;6.080;2023-05-31T10:04:50;32.00;44.50
24144;DHT22;12307;50.828;6.080;2023-05-31T10:07:17;32.00;44.40
24144;DHT22;12307;50.828;6.080;2023-05-31T10:09:43;32.10;44.40
24144;DHT22;12307;50.828;6.080;2023-05-31T10:12:12;32.10;44.20
24144;DHT22;12307;50.828;6.080;2023-05-31T10:14:42;32.10;44.20
24144;DHT22;12307;50.828;6.080;2023-05-31T10:17:14;32.10;44.10
24144;DHT22;12307;50.828;6.080;2023-05-31T10:19:48;32.10;44.10
24144;DHT22;12307;50.828;6.080;2023-05-31T10:22:17;32.10;44.20
24144;DHT22;12307;50.828;6.080;2023-05-31T10:24:49;32.10;44.00
24144;DHT22;12307;50.828;6.080;2023-05-31T10:27:27;32.10;43.90
24144;DHT22;12307;50.828;6.080;2023-05-31T10:29:56;32.10;43.80
24144;DHT22;12307;50.828;6.080;2023-05-31T10:32:25;32.10;43.80
24144;DHT22;12307;50.828;6.080;2023-05-31T10:34:51;32.10;43.70
24144;DHT22;12307;50.828;6.080;2023-05-31T10:37:17;32.10;43.70
24144;DHT22;12307;50.828;6.080;2023-05-31T10:39:48;32.10;43.50
24144;DHT22;12307;50.828;6.080;2023-05-31T10:42:22;32.10;43.60
24144;DHT22;12307;50.828;6.080;2023-05-31T10:45:03;32.00;43.60
24144;DHT22;12307;50.828;6.080;2023-05-31T10:47:34;32.00;43.50
24144;DHT22;12307;50.828;6.080;2023-05-31T10:50:01;32.00;43.40
24144;DHT22;12307;50.828;6.080;2023-05-31T10:52:29;31.90;43.50
24144;DHT22;12307;50.828;6.080;2023-05-31T10:55:14;31.90;43.50
24144;DHT22;12307;50.828;6.080;2023-05-31T10:57:41;31.90;43.60
24144;DHT22;12307;50.828;6.080;2023-05-31T11:00:08;31.80;43.50
24144;DHT22;12307;50.828;6.080;2023-05-31T11:02:37;31.80;43.60
24144;DHT22;12307;50.828;6.080;2023-05-31T11:05:18;31.70;43.60
24144;DHT22;12307;50.828;6.080;2023-05-31T11:07:44;31.70;43.60
24144;DHT22;12307;50.828;6.080;2023-05-31T11:10:23;31.70;43.60
24144;DHT22;12307;50.828;6.080;2023-05-31T11:12:50;31.60;43.60
24144;DHT22;12307;50.828;6.080;2023-05-31T11:15:16;31.50;43.60
24144;DHT22;12307;50.828;6.080;2023-05-31T11:17:51;31.50;43.60
24144;DHT22;12307;50.828;6.080;2023-05-31T11:20:18;31.40;43.70
24144;DHT22;12307;50.828;6.080;2023-05-31T11:22:44;31.30;43.70
24144;DHT22;12307;50.828;6.080;2023-05-31T11:25:18;31.20;43.80
24144;DHT22;12307;50.828;6.080;2023-05-31T11:27:46;31.20;43.90
24144;DHT22;12307;50.828;6.080;2023-05-31T11:30:16;31.10;44.00
24144;DHT22;12307;50.828;6.080;2023-05-31T11:32:54;30.90;43.90
24144;DHT22;12307;50.828;6.080;2023-05-31T11:35:21;30.80;43.90
24144;DHT22;12307;50.828;6.080;2023-05-31T11:37:47;30.70;43.90
24144;DHT22;12307;50.828;6.080;2023-05-31T11:40:15;30.60;44.10
24144;DHT22;12307;50.828;6.080;2023-05-31T11:42:42;30.50;44.30
24144;DHT22;12307;50.828;6.080;2023-05-31T11:45:09;30.30;44.40
24144;DHT22;12307;50.828;6.080;2023-05-31T11:47:45;30.20;44.80
24144;DHT22;12307;50.828;6.080;2023-05-31T11:50:15;30.00;45.00
24144;DHT22;12307;50.828;6.080;2023-05-31T11:52:44;29.90;45.30
24144;DHT22;12307;50.828;6.080;2023-05-31T11:55:11;29.80;45.60
24144;DHT22;12307;50.828;6.080;2023-05-31T11:57:40;29.70;45.90
24144;DHT22;12307;50.828;6.080;2023-05-31T12:00:13;29.60;46.00
24144;DHT22;12307;50.828;6.080;2023-05-31T12:02:42;29.50;46.20
24144;DHT22;12307;50.828;6.080;2023-05-31T12:05:11;29.40;46.20
24144;DHT22;12307;50.828;6.080;2023-05-31T12:07:37;29.30;46.30
24144;DHT22;12307;50.828;6.080;2023-05-31T12:10:05;29.20;46.30
24144;DHT22;12307;50.828;6.080;2023-05-31T12:12:31;29.20;46.40
24144;DHT22;12307;50.828;6.080;2023-05-31T12:14:57;29.10;46.70
24144;DHT22;12307;50.828;6.080;2023-05-31T12:17:23;29.10;46.50
24144;DHT22;12307;50.828;6.080;2023-05-31T12:19:51;29.10;46.70
24144;DHT22;12307;50.828;6.080;2023-05-31T12:22:16;29.10;46.90
24144;DHT22;12307;50.828;6.080;2023-05-31T12:24:47;29.20;47.00
24144;DHT22;12307;50.828;6.080;2023-05-31T12:27:15;29.20;47.00
24144;DHT22;12307;50.828;6.080;2023-05-31T12:29:41;29.30;47.00
24144;DHT22;12307;50.828;6.080;2023-05-31T12:32:07;29.40;46.90
24144;DHT22;12307;50.828;6.080;2023-05-31T12:34:34;29.50;46.80
24144;DHT22;12307;50.828;6.080;2023-05-31T12:37:05;29.70;46.50
24144;DHT22;12307;50.828;6.080;2023-05-31T12:39:32;29.80;46.20
24144;DHT22;12307;50.828;6.080;2023-05-31T12:41:58;30.00;46.10
24144;DHT22;12307;50.828;6.080;2023-05-31T12:44:25;30.00;45.90
24144;DHT22;12307;50.828;6.080;2023-05-31T12:46:58;29.90;45.80
24144;DHT22;12307;50.828;6.080;2023-05-31T12:49:25;29.90;45.80
24144;DHT22;12307;50.828;6.080;2023-05-31T12:51:57;29.80;45.80
24144;DHT22;12307;50.828;6.080;2023-05-31T12:54:25;29.60;45.90
24144;DHT22;12307;50.828;6.080;2023-05-31T12:56:52;29.40;45.90
24144;DHT22;12307;50.828;6.080;2023-05-31T12:59:17;29.30;45.90
24144;DHT22;12307;50.828;6.080;2023-05-31T13:01:44;29.20;45.90
24144;DHT22;12307;50.828;6.080;2023-05-31T13:04:10;29.10;45.90
24144;DHT22;12307;50.828;6.080;2023-05-31T13:06:37;29.00;46.00
24144;DHT22;12307;50.828;6.080;2023-05-31T13:09:03;28.80;46.10
24144;DHT22;12307;50.828;6.080;2023-05-31T13:11:32;28.60;46.30
24144;DHT22;12307;50.828;6.080;2023-05-31T13:13:59;28.40;46.50
24144;DHT22;12307;50.828;6.080;2023-05-31T13:16:25;28.30;46.70
24144;DHT22;12307;50.828;6.080;2023-05-31T13:18:51;28.10;46.90
24144;DHT22;12307;50.828;6.080;2023-05-31T13:21:16;28.00;47.10
24144;DHT22;12307;50.828;6.080;2023-05-31T13:23:42;27.80;47.30
24144;DHT22;12307;50.828;6.080;2023-05-31T13:26:08;27.60;47.50
24144;DHT22;12307;50.828;6.080;2023-05-31T13:28:35;27.50;47.70
24144;DHT22;12307;50.828;6.080;2023-05-31T13:31:01;27.40;47.80
24144;DHT22;12307;50.828;6.080;2023-05-31T13:33:27;27.30;48.00
24144;DHT22;12307;50.828;6.080;2023-05-31T13:35:53;27.10;48.10
24144;DHT22;12307;50.828;6.080;2023-05-31T13:38:21;27.00;48.20
24144;DHT22;12307;50.828;6.080;2023-05-31T13:40:47;26.90;48.40
24144;DHT22;12307;50.828;6.080;2023-05-31T13:43:13;26.80;48.60
24144;DHT22;12307;50.828;6.080;2023-05-31T13:45:40;26.70;48.80
24144;DHT22;12307;50.828;6.080;2023-05-31T13:48:06;26.70;49.00
24144;DHT22;12307;50.828;6.080;2023-05-31T13:50:32;26.60;49.10
24144;DHT22;12307;50.828;6.080;2023-05-31T13:52:57;26.50;49.20
24144;DHT22;12307;50.828;6.080;2023-05-31T13:55:23;26.40;49.30
24144;DHT22;12307;50.828;6.080;2023-05-31T13:57:49;26.30;49.40
24144;DHT22;12307;50.828;6.080;2023-05-31T14:00:15;26.30;49.60
24144;DHT22;12307;50.828;6.080;2023-05-31T14:02:42;26.20;49.60
24144;DHT22;12307;50.828;6.080;2023-05-31T14:05:08;26.20;49.80
24144;DHT22;12307;50.828;6.080;2023-05-31T14:07:34;26.10;49.90
24144;DHT22;12307;50.828;6.080;2023-05-31T14:10:01;26.10;50.00
24144;DHT22;12307;50.828;6.080;2023-05-31T14:12:27;26.00;50.10
24144;DHT22;12307;50.828;6.080;2023-05-31T14:14:53;26.00;50.10
24144;DHT22;12307;50.828;6.080;2023-05-31T14:17:18;25.90;50.20
24144;DHT22;12307;50.828;6.080;2023-05-31T14:19:45;25.90;50.40
24144;DHT22;12307;50.828;6.080;2023-05-31T14:22:11;25.80;50.40
24144;DHT22;12307;50.828;6.080;2023-05-31T14:24:37;25.80;50.50
24144;DHT22;12307;50.828;6.080;2023-05-31T14:27:03;25.80;50.60
24144;DHT22;12307;50.828;6.080;2023-05-31T14:29:29;25.80;50.70
24144;DHT22;12307;50.828;6.080;2023-05-31T14:31:54;25.70;50.80
24144;DHT22;12307;50.828;6.080;2023-05-31T14:34:20;25.70;50.90
24144;DHT22;12307;50.828;6.080;2023-05-31T14:36:47;25.70;51.00
24144;DHT22;12307;50.828;6.080;2023-05-31T14:39:13;25.70;51.00
24144;DHT22;12307;50.828;6.080;2023-05-31T14:41:38;25.60;51.10
24144;DHT22;12307;50.828;6.080;2023-05-31T14:44:04;25.60;51.10
24144;DHT22;12307;50.828;6.080;2023-05-31T14:46:30;25.60;51.20
24144;DHT22;12307;50.828;6.080;2023-05-31T14:48:56;25.60;51.30
24144;DHT22;12307;50.828;6.080;2023-05-31T14:51:22;25.50;51.30
24144;DHT22;12307;50.828;6.080;2023-05-31T14:53:49;25.50;51.30
24144;DHT22;12307;50.828;6.080;2023-05-31T14:56:15;25.50;51.40
24144;DHT22;12307;50.828;6.080;2023-05-31T14:58:41;25.50;51.50
24144;DHT22;12307;50.828;6.080;2023-05-31T15:01:08;25.50;51.50
24144;DHT22;12307;50.828;6.080;2023-05-31T15:03:33;25.40;51.60
24144;DHT22;12307;50.828;6.080;2023-05-31T15:05:59;25.40;51.70
24144;DHT22;12307;50.828;6.080;2023-05-31T15:08:25;25.40;51.70
24144;DHT22;12307;50.828;6.080;2023-05-31T15:10:52;25.40;51.70
24144;DHT22;12307;50.828;6.080;2023-05-31T15:13:18;25.40;51.80
24144;DHT22;12307;50.828;6.080;2023-05-31T15:15:44;25.40;51.90
24144;DHT22;12307;50.828;6.080;2023-05-31T15:18:09;25.40;51.90
24144;DHT22;12307;50.828;6.080;2023-05-31T15:20:35;25.30;51.90
24144;DHT22;12307;50.828;6.080;2023-05-31T15:23:01;25.30;51.90
24144;DHT22;12307;50.828;6.080;2023-05-31T15:25:26;25.30;51.90
24144;DHT22;12307;50.828;6.080;2023-05-31T15:27:53;25.30;51.90